Kruzenshtern — UCVK — position and weather

sailwx.info

Track history (hours):
 
Tides and Currents Weather Stations Pressure Air Temp Water Temp Dewpoint Dewpoint Depression Visibility Wind Speed Wind Dir Waves Ship Positions

Kruzenshtern (Russia)

ex-Padua.

Last reported at 2018-May-23 02:35 UTC. Time now 2018-May-23 10:41 UTC.
Position N 54°27' E 014°52'.

Length 114 m; draft 6 m.

Type: Sailing vessel. MMSI: 273243700.

Date/timePositionNaut miles runAvg speedWind from/ knotsBaromVisibWave heightAir tempDewpointWater temp
2018-May-23 02:35N 54°27' E 014°52'0 2.3
2018-May-23 02:29N 54°27' E 014°52'1 2.4
2018-May-23 01:55N 54°28' E 014°54'2 2.4
2018-May-23 01:05N 54°30' E 014°55'0 1.8
2018-May-23 00:59N 54°30' E 014°56'10 2.0
2018-May-22 20:04N 54°38' E 015°06'0 1.9
2018-May-22 20:00N 54°38' E 015°06'1 1.8
2018-May-22 19:28N 54°38' E 015°07'1 2.0
2018-May-22 19:00N 54°39' E 015°08'1 2.2
2018-May-22 18:30N 54°40' E 015°10'1 1.9
2018-May-22 18:00N 54°41' E 015°11'1 1.7
2018-May-22 17:30N 54°41' E 015°12'1 2.6
2018-May-22 17:00N 54°42' E 015°13'3 3.5
2018-May-22 16:11N 54°43' E 015°18'22 3.5
2018-May-22 09:57N 54°49' E 015°55'6 3.9
2018-May-22 08:25N 54°52' E 016°04'2 4.4
2018-May-22 07:59N 54°52' E 016°07'4 4.0
2018-May-22 06:56N 54°55' E 016°13'1 1.4
2018-May-22 06:22N 54°54' E 016°15'0 0.8
2018-May-22 05:56N 54°54' E 016°15'0 0.8
2018-May-22 05:29N 54°54' E 016°16'0 0.8
2018-May-22 04:52N 54°54' E 016°17'0 0.7
2018-May-22 04:28N 54°54' E 016°17'0 0.7
2018-May-22 04:00N 54°55' E 016°18'0 0.6
2018-May-22 03:30N 54°55' E 016°18'0 0.6
2018-May-22 03:00N 54°55' E 016°19'0 0.6
2018-May-22 02:30N 54°55' E 016°19'0 0.6
2018-May-22 02:00N 54°55' E 016°20'0 0.6
2018-May-22 01:30N 54°55' E 016°20'0 0.6
2018-May-22 01:00N 54°55' E 016°21'0 0.6
2018-May-22 00:29N 54°55' E 016°21'0 0.6
2018-May-21 23:59N 54°55' E 016°22'1 0.6
2018-May-21 22:41N 54°55' E 016°23'0 0.6
2018-May-21 22:30N 54°55' E 016°23'3 3.3
2018-May-21 21:30N 54°54' E 016°18'3 5.4
2018-May-21 20:57N 54°53' E 016°13'3 5.0
2018-May-21 20:26N 54°53' E 016°08'2 4.6
2018-May-21 20:00N 54°52' E 016°05'2 4.1
2018-May-21 19:30N 54°52' E 016°02'2 4.2
2018-May-21 19:00N 54°50' E 015°60'3 6.7
2018-May-21 18:30N 54°49' E 015°54'4 7.0
2018-May-21 17:57N 54°48' E 015°48'3 7.1
2018-May-21 17:30N 54°47' E 015°43'4 7.1
2018-May-21 17:00N 54°46' E 015°37'4 7.3
2018-May-21 16:30N 54°45' E 015°30'4 7.3
2018-May-21 16:00N 54°44' E 015°24'4 7.3
2018-May-21 15:30N 54°43' E 015°18'4 7.4
2018-May-21 15:00N 54°42' E 015°12'4 7.5
2018-May-21 14:30N 54°41' E 015°06'6 7.6
2018-May-21 13:46N 54°40' E 014°56'2 7.6
2018-May-21 13:30N 54°39' E 014°53'6 7.6
2018-May-21 12:46N 54°38' E 014°44'12 7.6
2018-May-21 11:08N 54°35' E 014°23'2 7.7
2018-May-21 10:55N 54°36' E 014°20'3 7.7
2018-May-21 10:30N 54°37' E 014°15'4 7.6
2018-May-21 10:00N 54°38' E 014°08'4 7.4
2018-May-21 09:30N 54°39' E 014°02'39 7.4
2018-May-21 04:13N 54°44' E 012°55'4 7.7
2018-May-21 03:44N 54°43' E 012°49'5 7.9
2018-May-21 03:05N 54°40' E 012°41'1 7.9
2018-May-21 02:59N 54°40' E 012°40'5 7.9
2018-May-21 02:23N 54°37' E 012°33'3 7.7
2018-May-21 02:00N 54°36' E 012°29'4 7.8
2018-May-21 01:30N 54°34' E 012°23'6 7.4
2018-May-21 00:40N 54°29' E 012°16'1 8.0
2018-May-21 00:30N 54°28' E 012°15'4 8.0
2018-May-21 00:00N 54°25' E 012°10'4 7.7
2018-May-20 23:30N 54°24' E 012°04'4 8.0
2018-May-20 23:00N 54°24' E 011°57'44 6.2
2018-May-20 15:54N 54°47' E 010°52'3 5.9
2018-May-20 15:25N 54°50' E 010°52'5 5.2
2018-May-20 14:27N 54°55' E 010°54'2 4.2
2018-May-20 14:00N 54°56' E 010°56'2 4.6
2018-May-20 13:27N 54°58' E 010°59'5 4.9
2018-May-20 12:29N 55°02' E 011°02'4 5.4
2018-May-20 11:44N 55°07' E 011°02'3 5.3
2018-May-20 11:15N 55°09' E 011°03'52 5.1
2018-May-20 01:10N 56°01' E 011°04'17 5.7
2018-May-19 22:12N 56°17' E 011°05'2 6.1
2018-May-19 21:52N 56°19' E 011°05'6 5.9
2018-May-19 20:55N 56°25' E 011°05'2 5.8
2018-May-19 20:30N 56°28' E 011°05'3 5.6
2018-May-19 20:00N 56°30' E 011°04'3 5.4
2018-May-19 19:30N 56°33' E 011°03'3 5.5
2018-May-19 19:00N 56°36' E 011°03'3 5.2
2018-May-19 18:30N 56°38' E 011°02'4 5.5
2018-May-19 17:42N 56°43' E 011°01'1 5.9
2018-May-19 17:30N 56°44' E 010°60'3 5.8
2018-May-19 17:00N 56°46' E 010°56'3 5.7
2018-May-19 16:30N 56°48' E 010°53'3 5.8
2018-May-19 16:00N 56°50' E 010°49'3 5.3
2018-May-19 15:30N 56°53' E 010°48'3 5.6
2018-May-19 15:00N 56°55' E 010°50'3 5.6
2018-May-19 14:30N 56°58' E 010°51'3 5.5
2018-May-19 13:52N 57°02' E 010°50'2 5.7
2018-May-19 13:30N 57°03' E 010°49'10 5.6
2018-May-19 11:48N 57°13' E 010°44'2 5.5
2018-May-19 11:30N 57°14' E 010°43'3 5.5
2018-May-19 11:00N 57°17' E 010°42'3 5.9
2018-May-19 10:30N 57°20' E 010°42'3 6.2
2018-May-19 10:00N 57°23' E 010°43'3 6.5
2018-May-19 09:30N 57°26' E 010°43'3 6.5
2018-May-19 09:00N 57°29' E 010°43'3 6.2
2018-May-19 08:30N 57°33' E 010°43'3 6.0
2018-May-19 08:00N 57°35' E 010°42'3 5.9
2018-May-19 07:30N 57°38' E 010°39'3 5.6
2018-May-19 07:00N 57°40' E 010°36'0 0.1
2018-May-19 06:24N 57°40' E 010°36'0 0.1
2018-May-19 05:48N 57°40' E 010°36'0 0.0
2018-May-19 05:30N 57°40' E 010°36'0 0.0
2018-May-19 05:00N 57°40' E 010°36'0 0.1
2018-May-19 04:27N 57°40' E 010°36'0 0.1
2018-May-19 03:57N 57°40' E 010°36'0 0.0
2018-May-19 03:30N 57°40' E 010°36'0 0.0
2018-May-19 03:00N 57°40' E 010°36'0 0.1
2018-May-19 02:27N 57°40' E 010°36'0 0.0
2018-May-19 01:57N 57°40' E 010°36'0 0.0
2018-May-19 01:15N 57°40' E 010°36'0 0.0
2018-May-19 00:54N 57°40' E 010°36'0 0.0
2018-May-19 00:30N 57°40' E 010°36'0 0.0
2018-May-18 23:54N 57°40' E 010°36'0 0.0
2018-May-18 23:30N 57°40' E 010°36'0 0.0
2018-May-18 23:00N 57°40' E 010°36'0 0.2
2018-May-18 22:30N 57°40' E 010°36'4 7.4
2018-May-18 22:00N 57°41' E 010°43'4 8.7
2018-May-18 21:30N 57°45' E 010°45'4 8.2
2018-May-18 21:00N 57°49' E 010°44'5 9.1
2018-May-18 20:30N 57°54' E 010°42'5 9.1
2018-May-18 20:00N 57°58' E 010°39'5 8.8
2018-May-18 19:30N 58°02' E 010°37'5 9.3
2018-May-18 19:00N 58°07' E 010°34'15 9.7
2018-May-18 17:30N 58°21' E 010°28'22 8.5
2018-May-18 14:56N 58°42' E 010°14'3 7.1
2018-May-18 14:29N 58°45' E 010°12'4 7.5
2018-May-18 14:00N 58°48' E 010°11'4 8.8
2018-May-18 13:30N 58°52' E 010°08'4 8.1
2018-May-18 13:00N 58°56' E 010°06'4 8.3
2018-May-18 12:30N 59°00' E 010°04'3 4.6
2018-May-18 11:51N 59°03' E 010°02'0 0.0
2018-May-18 11:27N 59°03' E 010°02'0 0.0
2018-May-18 10:57N 59°03' E 010°02'0 0.0
2018-May-18 10:09N 59°03' E 010°02'0 0.0
2018-May-18 09:57N 59°03' E 010°02'0 0.0
2018-May-18 09:27N 59°03' E 010°02'0 0.0
2018-May-18 08:57N 59°03' E 010°02'0 0.0
2018-May-18 08:27N 59°03' E 010°02'0 0.0
2018-May-18 07:57N 59°03' E 010°02'0 0.0
2018-May-18 07:21N 59°03' E 010°02'0 0.0
2018-May-18 06:57N 59°03' E 010°02'0 0.0
2018-May-18 06:21N 59°03' E 010°02'0 0.0
2018-May-18 05:51N 59°03' E 010°02'0 0.0
2018-May-18 05:21N 59°03' E 010°02'0 0.0
2018-May-18 04:57N 59°03' E 010°02'0 0.0
2018-May-18 04:21N 59°03' E 010°02'0 0.0
2018-May-18 03:57N 59°03' E 010°02'0 0.0
2018-May-18 03:27N 59°03' E 010°02'0 0.0
2018-May-18 02:57N 59°03' E 010°02'0 0.0
2018-May-18 02:27N 59°03' E 010°02'0 0.0
2018-May-18 01:57N 59°03' E 010°02'0 0.0
2018-May-18 01:21N 59°03' E 010°02'0 0.0
2018-May-18 00:45N 59°03' E 010°02'0 0.0
2018-May-18 00:21N 59°03' E 010°02'0 0.0
2018-May-17 23:57N 59°03' E 010°02'0 0.0
2018-May-17 23:27N 59°03' E 010°02'0 0.0
2018-May-17 22:57N 59°03' E 010°02'0 0.0
2018-May-17 22:21N 59°03' E 010°02'0 0.0
2018-May-17 21:57N 59°03' E 010°02'0 0.0
2018-May-17 21:27N 59°03' E 010°02'0 0.0
2018-May-17 20:57N 59°03' E 010°02'0 0.0
2018-May-17 20:27N 59°03' E 010°02'0 0.0
2018-May-17 19:57N 59°03' E 010°02'0 0.0
2018-May-17 19:21N 59°03' E 010°02'0 0.0
2018-May-17 18:57N 59°03' E 010°02'0 0.0
2018-May-17 18:27N 59°03' E 010°02'0 0.0
2018-May-17 17:57N 59°03' E 010°02'0 0.0
2018-May-17 17:27N 59°03' E 010°02'0 0.0
2018-May-17 16:57N 59°03' E 010°02'0 0.0
2018-May-17 16:27N 59°03' E 010°02'0 0.0
2018-May-17 15:57N 59°03' E 010°02'0 0.0
2018-May-17 15:27N 59°03' E 010°02'0 0.0
2018-May-17 14:45N 59°03' E 010°02'0 0.0
2018-May-17 14:27N 59°03' E 010°02'0 0.0
2018-May-17 13:57N 59°03' E 010°02'0 0.0
2018-May-17 13:27N 59°03' E 010°02'0 0.0
2018-May-17 12:39N 59°03' E 010°02'0 0.0
2018-May-17 12:27N 59°03' E 010°02'0 0.0
2018-May-17 11:51N 59°03' E 010°02'0 0.0
2018-May-17 11:21N 59°03' E 010°02'0 0.0
2018-May-17 10:57N 59°03' E 010°02'0 0.0
2018-May-17 10:27N 59°03' E 010°02'0 0.0
2018-May-17 09:51N 59°03' E 010°02'0 0.0
2018-May-17 09:21N 59°03' E 010°02'0 0.0
2018-May-17 08:57N 59°03' E 010°02'0 0.0
2018-May-17 08:27N 59°03' E 010°02'0 0.0
2018-May-17 07:57N 59°03' E 010°02'0 0.0
2018-May-17 07:27N 59°03' E 010°02'0 0.0
2018-May-17 06:57N 59°03' E 010°02'0 0.0
2018-May-17 06:21N 59°03' E 010°02'0 0.0
2018-May-17 05:57N 59°03' E 010°02'0 0.0
2018-May-17 05:27N 59°03' E 010°02'0 0.0
2018-May-17 02:09N 59°03' E 010°02'0 0.0
2018-May-17 01:57N 59°03' E 010°02'0 0.0
2018-May-17 01:27N 59°03' E 010°02'0 0.0
2018-May-17 00:57N 59°03' E 010°02'0 0.0
2018-May-17 00:27N 59°03' E 010°02'0 0.0
2018-May-16 23:57N 59°03' E 010°02'0 0.0
2018-May-16 23:21N 59°03' E 010°02'0 0.0
2018-May-16 22:57N 59°03' E 010°02'0 0.0
2018-May-16 22:09N 59°03' E 010°02'0 0.0
2018-May-16 21:15N 59°03' E 010°02'0 0.0
2018-May-16 20:42N 59°03' E 010°02'0 0.0
2018-May-16 20:21N 59°03' E 010°02'0 0.0
2018-May-16 19:51N 59°03' E 010°02'0 0.0
2018-May-16 19:18N 59°03' E 010°02'0 0.0
2018-May-16 18:45N 59°03' E 010°02'0 0.0
2018-May-16 18:15N 59°03' E 010°02'0 0.0
2018-May-16 17:39N 59°03' E 010°02'0 0.0
2018-May-16 17:27N 59°03' E 010°02'0 0.0
2018-May-16 16:57N 59°03' E 010°02'0 0.0
2018-May-16 16:21N 59°03' E 010°02'0 0.0
2018-May-16 16:00N 59°03' E 010°02'0 0.0
2018-May-16 15:30N 59°03' E 010°02'0 0.0
2018-May-16 14:54N 59°03' E 010°02'0 0.0
2018-May-16 14:18N 59°03' E 010°02'0 0.0
2018-May-16 13:42N 59°03' E 010°02'0 0.0
2018-May-16 13:30N 59°03' E 010°02'0 0.0
2018-May-16 13:00N 59°03' E 010°02'0 0.0
2018-May-16 12:30N 59°03' E 010°02'0 0.0
2018-May-16 12:00N 59°03' E 010°02'0 0.0
2018-May-16 11:27N 59°03' E 010°02'0 0.0
2018-May-16 10:57N 59°03' E 010°02'0 0.0
2018-May-16 10:27N 59°03' E 010°02'0 0.0
2018-May-16 09:57N 59°03' E 010°02'0 0.0
2018-May-16 09:30N 59°03' E 010°02'0 0.0
2018-May-16 08:45N 59°03' E 010°02'0 0.0
2018-May-16 08:21N 59°03' E 010°02'0 0.0
2018-May-16 07:57N 59°03' E 010°02'0 0.0
2018-May-16 07:21N 59°03' E 010°02'0 0.0
2018-May-16 06:57N 59°03' E 010°02'0 0.0
2018-May-16 06:25N 59°03' E 010°02'0 0.1
2018-May-16 06:00N 59°03' E 010°02'1 2.9
2018-May-16 05:30N 59°02' E 010°03'2 4.1
2018-May-16 05:00N 58°60' E 010°04'4 7.8
2018-May-16 04:30N 58°56' E 010°04'3 6.2
2018-May-16 04:00N 58°53' E 010°02'3 5.2
2018-May-16 03:30N 58°50' E 010°00'3 5.8
2018-May-16 03:00N 58°48' E 009°59'3 6.7
2018-May-16 02:30N 58°44' E 009°57'4 7.1
2018-May-16 02:00N 58°41' E 009°55'5 7.1
2018-May-16 01:15N 58°36' E 009°52'2 7.0
2018-May-16 01:00N 58°34' E 009°50'3 6.9
2018-May-16 00:30N 58°31' E 009°48'4 7.1
2018-May-15 23:58N 58°28' E 009°46'3 7.1
2018-May-15 23:30N 58°24' E 009°44'4 7.1
2018-May-15 23:00N 58°21' E 009°41'3 6.9
2018-May-15 22:30N 58°18' E 009°38'16 6.2
2018-May-15 19:51N 58°04' E 009°22'21 6.4
2018-May-15 16:40N 57°48' E 008°59'133 5.8
2018-May-14 17:35N 55°49' E 007°08'1 5.8
2018-May-14 17:30N 55°49' E 007°07'3 5.6
2018-May-14 17:00N 55°46' E 007°09'3 6.8
2018-May-14 16:31N 55°44' E 007°13'4 6.9
2018-May-14 16:00N 55°41' E 007°18'4 7.4
2018-May-14 15:30N 55°38' E 007°22'4 7.1
2018-May-14 14:59N 55°35' E 007°24'4 7.5
2018-May-14 14:30N 55°31' E 007°26'4 7.6
2018-May-14 14:01N 55°28' E 007°30'4 7.3
2018-May-14 13:29N 55°25' E 007°33'2 4.3
2018-May-14 13:00N 55°23' E 007°35'1 2.4
2018-May-14 12:30N 55°22' E 007°36'2 2.8
2018-May-14 11:51N 55°21' E 007°38'2 4.7
2018-May-14 11:30N 55°19' E 007°40'3 5.1
2018-May-14 10:59N 55°17' E 007°42'2 5.1
2018-May-14 10:30N 55°15' E 007°45'4 7.1
2018-May-14 10:00N 55°12' E 007°48'4 7.2
2018-May-14 09:31N 55°09' E 007°51'4 7.0
2018-May-14 09:00N 55°05' E 007°53'3 6.7
2018-May-14 08:31N 55°02' E 007°55'3 6.5
2018-May-14 08:00N 54°59' E 007°56'3 6.6
2018-May-14 07:30N 54°56' E 007°57'3 6.6
2018-May-14 07:01N 54°53' E 007°57'4 7.3
2018-May-14 06:31N 54°49' E 007°55'4 8.1
2018-May-14 06:00N 54°45' E 007°54'4 7.9
2018-May-14 05:30N 54°41' E 007°53'4 7.8
2018-May-14 04:59N 54°37' E 007°53'5 8.5
2018-May-14 04:27N 54°32' E 007°52'4 8.8
2018-May-14 03:58N 54°28' E 007°50'14 8.2
2018-May-14 02:15N 54°15' E 007°44'5 9.4
2018-May-14 01:42N 54°10' E 007°45'2 9.5
2018-May-14 01:28N 54°08' E 007°48'510.1
2018-May-14 01:00N 54°05' E 007°55'2710.7
2018-May-13 22:32N 53°57' E 008°38'0 8.6
2018-May-13 22:30N 53°57' E 008°38'4 7.9
2018-May-13 21:59N 53°54' E 008°42'4 7.6
2018-May-13 21:30N 53°51' E 008°46'4 7.0
2018-May-13 21:00N 53°50' E 008°52'4 7.3
2018-May-13 20:30N 53°51' E 008°58'4 8.1
2018-May-13 20:00N 53°52' E 009°04'4 8.3
2018-May-13 19:30N 53°53' E 009°12'510.9
2018-May-13 19:00N 53°51' E 009°20'611.9
2018-May-13 18:30N 53°45' E 009°24'611.7
2018-May-13 17:58N 53°40' E 009°31'511.6
2018-May-13 17:30N 53°36' E 009°36'611.8
2018-May-13 17:00N 53°34' E 009°45'511.0
2018-May-13 16:30N 53°33' E 009°54'3 5.7
2018-May-13 16:00N 53°32' E 009°59'0 0.9
2018-May-13 15:30N 53°33' E 009°58'0 0.3
2018-May-13 14:57N 53°33' E 009°58'0 0.0
2018-May-13 14:30N 53°33' E 009°58'0 0.0
2018-May-13 14:00N 53°33' E 009°58'0 0.0
2018-May-13 13:30N 53°33' E 009°58'0 0.0
2018-May-13 13:00N 53°33' E 009°58'0 0.0
2018-May-13 12:30N 53°33' E 009°58'0 0.0
2018-May-13 12:00N 53°33' E 009°58'0 0.0
2018-May-13 11:30N 53°33' E 009°58'0 0.0
2018-May-13 11:00N 53°33' E 009°58'0 0.0
2018-May-13 10:30N 53°33' E 009°58'0 0.0
2018-May-13 10:00N 53°33' E 009°58'0 0.0
2018-May-13 09:30N 53°33' E 009°58'0 0.0
2018-May-13 09:00N 53°33' E 009°58'0 0.0
2018-May-13 08:30N 53°33' E 009°58'0 0.0
2018-May-13 08:00N 53°33' E 009°58'0 0.0
2018-May-13 07:30N 53°33' E 009°58'0 0.0
2018-May-13 07:00N 53°33' E 009°58'0 0.0
2018-May-13 06:30N 53°33' E 009°58'0 0.0
2018-May-13 06:00N 53°33' E 009°58'0 0.0
2018-May-13 05:30N 53°33' E 009°58'0 0.0
2018-May-13 05:00N 53°33' E 009°58'0 0.0
2018-May-13 04:30N 53°33' E 009°58'0 0.0
2018-May-13 04:00N 53°33' E 009°58'0 0.0
2018-May-13 03:30N 53°33' E 009°58'0 0.0
2018-May-13 03:00N 53°33' E 009°58'  
Track history (hours):
 
Tides and Currents Weather Stations Pressure Air Temp Water Temp Dewpoint Dewpoint Depression Visibility Wind Speed Wind Dir Waves Ship Positions

Kruzenshtern (Russia)

ex-Padua.

Last reported at 2018-May-23 02:35 UTC. Time now 2018-May-23 10:41 UTC.
Position N 54°27' E 014°52'.

Length 114 m; draft 6 m.

Type: Sailing vessel. MMSI: 273243700.

Date/timePositionNaut miles runAvg speedWind from/ knotsBaromVisibWave heightAir tempDewpointWater temp
2018-May-23 02:35N 54°27' E 014°52'0 2.3
2018-May-23 02:29N 54°27' E 014°52'1 2.4
2018-May-23 01:55N 54°28' E 014°54'2 2.4
2018-May-23 01:05N 54°30' E 014°55'0 1.8
2018-May-23 00:59N 54°30' E 014°56'10 2.0
2018-May-22 20:04N 54°38' E 015°06'0 1.9
2018-May-22 20:00N 54°38' E 015°06'1 1.8
2018-May-22 19:28N 54°38' E 015°07'1 2.0
2018-May-22 19:00N 54°39' E 015°08'1 2.2
2018-May-22 18:30N 54°40' E 015°10'1 1.9
2018-May-22 18:00N 54°41' E 015°11'1 1.7
2018-May-22 17:30N 54°41' E 015°12'1 2.6
2018-May-22 17:00N 54°42' E 015°13'3 3.5
2018-May-22 16:11N 54°43' E 015°18'22 3.5
2018-May-22 09:57N 54°49' E 015°55'6 3.9
2018-May-22 08:25N 54°52' E 016°04'2 4.4
2018-May-22 07:59N 54°52' E 016°07'4 4.0
2018-May-22 06:56N 54°55' E 016°13'1 1.4
2018-May-22 06:22N 54°54' E 016°15'0 0.8
2018-May-22 05:56N 54°54' E 016°15'0 0.8
2018-May-22 05:29N 54°54' E 016°16'0 0.8
2018-May-22 04:52N 54°54' E 016°17'0 0.7
2018-May-22 04:28N 54°54' E 016°17'0 0.7
2018-May-22 04:00N 54°55' E 016°18'0 0.6
2018-May-22 03:30N 54°55' E 016°18'0 0.6
2018-May-22 03:00N 54°55' E 016°19'0 0.6
2018-May-22 02:30N 54°55' E 016°19'0 0.6
2018-May-22 02:00N 54°55' E 016°20'0 0.6
2018-May-22 01:30N 54°55' E 016°20'0 0.6
2018-May-22 01:00N 54°55' E 016°21'0 0.6
2018-May-22 00:29N 54°55' E 016°21'0 0.6
2018-May-21 23:59N 54°55' E 016°22'1 0.6
2018-May-21 22:41N 54°55' E 016°23'0 0.6
2018-May-21 22:30N 54°55' E 016°23'3 3.3
2018-May-21 21:30N 54°54' E 016°18'3 5.4
2018-May-21 20:57N 54°53' E 016°13'3 5.0
2018-May-21 20:26N 54°53' E 016°08'2 4.6
2018-May-21 20:00N 54°52' E 016°05'2 4.1
2018-May-21 19:30N 54°52' E 016°02'2 4.2
2018-May-21 19:00N 54°50' E 015°60'3 6.7
2018-May-21 18:30N 54°49' E 015°54'4 7.0
2018-May-21 17:57N 54°48' E 015°48'3 7.1
2018-May-21 17:30N 54°47' E 015°43'4 7.1
2018-May-21 17:00N 54°46' E 015°37'4 7.3
2018-May-21 16:30N 54°45' E 015°30'4 7.3
2018-May-21 16:00N 54°44' E 015°24'4 7.3
2018-May-21 15:30N 54°43' E 015°18'4 7.4
2018-May-21 15:00N 54°42' E 015°12'4 7.5
2018-May-21 14:30N 54°41' E 015°06'6 7.6
2018-May-21 13:46N 54°40' E 014°56'2 7.6
2018-May-21 13:30N 54°39' E 014°53'6 7.6
2018-May-21 12:46N 54°38' E 014°44'12 7.6
2018-May-21 11:08N 54°35' E 014°23'2 7.7
2018-May-21 10:55N 54°36' E 014°20'3 7.7
2018-May-21 10:30N 54°37' E 014°15'4 7.6
2018-May-21 10:00N 54°38' E 014°08'4 7.4
2018-May-21 09:30N 54°39' E 014°02'39 7.4
2018-May-21 04:13N 54°44' E 012°55'4 7.7
2018-May-21 03:44N 54°43' E 012°49'5 7.9
2018-May-21 03:05N 54°40' E 012°41'1 7.9
2018-May-21 02:59N 54°40' E 012°40'5 7.9
2018-May-21 02:23N 54°37' E 012°33'3 7.7
2018-May-21 02:00N 54°36' E 012°29'4 7.8
2018-May-21 01:30N 54°34' E 012°23'6 7.4
2018-May-21 00:40N 54°29' E 012°16'1 8.0
2018-May-21 00:30N 54°28' E 012°15'4 8.0
2018-May-21 00:00N 54°25' E 012°10'4 7.7
2018-May-20 23:30N 54°24' E 012°04'4 8.0
2018-May-20 23:00N 54°24' E 011°57'44 6.2
2018-May-20 15:54N 54°47' E 010°52'3 5.9
2018-May-20 15:25N 54°50' E 010°52'5 5.2
2018-May-20 14:27N 54°55' E 010°54'2 4.2
2018-May-20 14:00N 54°56' E 010°56'2 4.6
2018-May-20 13:27N 54°58' E 010°59'5 4.9
2018-May-20 12:29N 55°02' E 011°02'4 5.4
2018-May-20 11:44N 55°07' E 011°02'3 5.3
2018-May-20 11:15N 55°09' E 011°03'52 5.1
2018-May-20 01:10N 56°01' E 011°04'17 5.7
2018-May-19 22:12N 56°17' E 011°05'2 6.1
2018-May-19 21:52N 56°19' E 011°05'6 5.9
2018-May-19 20:55N 56°25' E 011°05'2 5.8
2018-May-19 20:30N 56°28' E 011°05'3 5.6
2018-May-19 20:00N 56°30' E 011°04'3 5.4
2018-May-19 19:30N 56°33' E 011°03'3 5.5
2018-May-19 19:00N 56°36' E 011°03'3 5.2
2018-May-19 18:30N 56°38' E 011°02'4 5.5
2018-May-19 17:42N 56°43' E 011°01'1 5.9
2018-May-19 17:30N 56°44' E 010°60'3 5.8
2018-May-19 17:00N 56°46' E 010°56'3 5.7
2018-May-19 16:30N 56°48' E 010°53'3 5.8
2018-May-19 16:00N 56°50' E 010°49'3 5.3
2018-May-19 15:30N 56°53' E 010°48'3 5.6
2018-May-19 15:00N 56°55' E 010°50'3 5.6
2018-May-19 14:30N 56°58' E 010°51'3 5.5
2018-May-19 13:52N 57°02' E 010°50'2 5.7
2018-May-19 13:30N 57°03' E 010°49'10 5.6
2018-May-19 11:48N 57°13' E 010°44'2 5.5
2018-May-19 11:30N 57°14' E 010°43'3 5.5
2018-May-19 11:00N 57°17' E 010°42'3 5.9
2018-May-19 10:30N 57°20' E 010°42'3 6.2
2018-May-19 10:00N 57°23' E 010°43'3 6.5
2018-May-19 09:30N 57°26' E 010°43'3 6.5
2018-May-19 09:00N 57°29' E 010°43'3 6.2
2018-May-19 08:30N 57°33' E 010°43'3 6.0
2018-May-19 08:00N 57°35' E 010°42'3 5.9
2018-May-19 07:30N 57°38' E 010°39'3 5.6
2018-May-19 07:00N 57°40' E 010°36'0 0.1
2018-May-19 06:24N 57°40' E 010°36'0 0.1
2018-May-19 05:48N 57°40' E 010°36'0 0.0
2018-May-19 05:30N 57°40' E 010°36'0 0.0
2018-May-19 05:00N 57°40' E 010°36'0 0.1
2018-May-19 04:27N 57°40' E 010°36'0 0.1
2018-May-19 03:57N 57°40' E 010°36'0 0.0
2018-May-19 03:30N 57°40' E 010°36'0 0.0
2018-May-19 03:00N 57°40' E 010°36'0 0.1
2018-May-19 02:27N 57°40' E 010°36'0 0.0
2018-May-19 01:57N 57°40' E 010°36'0 0.0
2018-May-19 01:15N 57°40' E 010°36'0 0.0
2018-May-19 00:54N 57°40' E 010°36'0 0.0
2018-May-19 00:30N 57°40' E 010°36'0 0.0
2018-May-18 23:54N 57°40' E 010°36'0 0.0
2018-May-18 23:30N 57°40' E 010°36'0 0.0
2018-May-18 23:00N 57°40' E 010°36'0 0.2
2018-May-18 22:30N 57°40' E 010°36'4 7.4
2018-May-18 22:00N 57°41' E 010°43'4 8.7
2018-May-18 21:30N 57°45' E 010°45'4 8.2
2018-May-18 21:00N 57°49' E 010°44'5 9.1
2018-May-18 20:30N 57°54' E 010°42'5 9.1
2018-May-18 20:00N 57°58' E 010°39'5 8.8
2018-May-18 19:30N 58°02' E 010°37'5 9.3
2018-May-18 19:00N 58°07' E 010°34'15 9.7
2018-May-18 17:30N 58°21' E 010°28'22 8.5
2018-May-18 14:56N 58°42' E 010°14'3 7.1
2018-May-18 14:29N 58°45' E 010°12'4 7.5
2018-May-18 14:00N 58°48' E 010°11'4 8.8
2018-May-18 13:30N 58°52' E 010°08'4 8.1
2018-May-18 13:00N 58°56' E 010°06'4 8.3
2018-May-18 12:30N 59°00' E 010°04'3 4.6
2018-May-18 11:51N 59°03' E 010°02'0 0.0
2018-May-18 11:27N 59°03' E 010°02'0 0.0
2018-May-18 10:57N 59°03' E 010°02'0 0.0
2018-May-18 10:09N 59°03' E 010°02'0 0.0
2018-May-18 09:57N 59°03' E 010°02'0 0.0
2018-May-18 09:27N 59°03' E 010°02'0 0.0
2018-May-18 08:57N 59°03' E 010°02'0 0.0
2018-May-18 08:27N 59°03' E 010°02'0 0.0
2018-May-18 07:57N 59°03' E 010°02'0 0.0
2018-May-18 07:21N 59°03' E 010°02'0 0.0
2018-May-18 06:57N 59°03' E 010°02'0 0.0
2018-May-18 06:21N 59°03' E 010°02'0 0.0
2018-May-18 05:51N 59°03' E 010°02'0 0.0
2018-May-18 05:21N 59°03' E 010°02'0 0.0
2018-May-18 04:57N 59°03' E 010°02'0 0.0
2018-May-18 04:21N 59°03' E 010°02'0 0.0
2018-May-18 03:57N 59°03' E 010°02'0 0.0
2018-May-18 03:27N 59°03' E 010°02'0 0.0
2018-May-18 02:57N 59°03' E 010°02'0 0.0
2018-May-18 02:27N 59°03' E 010°02'0 0.0
2018-May-18 01:57N 59°03' E 010°02'0 0.0
2018-May-18 01:21N 59°03' E 010°02'0 0.0
2018-May-18 00:45N 59°03' E 010°02'0 0.0
2018-May-18 00:21N 59°03' E 010°02'0 0.0
2018-May-17 23:57N 59°03' E 010°02'0 0.0
2018-May-17 23:27N 59°03' E 010°02'0 0.0
2018-May-17 22:57N 59°03' E 010°02'0 0.0
2018-May-17 22:21N 59°03' E 010°02'0 0.0
2018-May-17 21:57N 59°03' E 010°02'0 0.0
2018-May-17 21:27N 59°03' E 010°02'0 0.0
2018-May-17 20:57N 59°03' E 010°02'0 0.0
2018-May-17 20:27N 59°03' E 010°02'0 0.0
2018-May-17 19:57N 59°03' E 010°02'0 0.0
2018-May-17 19:21N 59°03' E 010°02'0 0.0
2018-May-17 18:57N 59°03' E 010°02'0 0.0
2018-May-17 18:27N 59°03' E 010°02'0 0.0
2018-May-17 17:57N 59°03' E 010°02'0 0.0
2018-May-17 17:27N 59°03' E 010°02'0 0.0
2018-May-17 16:57N 59°03' E 010°02'0 0.0
2018-May-17 16:27N 59°03' E 010°02'0 0.0
2018-May-17 15:57N 59°03' E 010°02'0 0.0
2018-May-17 15:27N 59°03' E 010°02'0 0.0
2018-May-17 14:45N 59°03' E 010°02'0 0.0
2018-May-17 14:27N 59°03' E 010°02'0 0.0
2018-May-17 13:57N 59°03' E 010°02'0 0.0
2018-May-17 13:27N 59°03' E 010°02'0 0.0
2018-May-17 12:39N 59°03' E 010°02'0 0.0
2018-May-17 12:27N 59°03' E 010°02'0 0.0
2018-May-17 11:51N 59°03' E 010°02'0 0.0
2018-May-17 11:21N 59°03' E 010°02'0 0.0
2018-May-17 10:57N 59°03' E 010°02'0 0.0
2018-May-17 10:27N 59°03' E 010°02'0 0.0
2018-May-17 09:51N 59°03' E 010°02'0 0.0
2018-May-17 09:21N 59°03' E 010°02'0 0.0
2018-May-17 08:57N 59°03' E 010°02'0 0.0
2018-May-17 08:27N 59°03' E 010°02'0 0.0
2018-May-17 07:57N 59°03' E 010°02'0 0.0
2018-May-17 07:27N 59°03' E 010°02'0 0.0
2018-May-17 06:57N 59°03' E 010°02'0 0.0
2018-May-17 06:21N 59°03' E 010°02'0 0.0
2018-May-17 05:57N 59°03' E 010°02'0 0.0
2018-May-17 05:27N 59°03' E 010°02'0 0.0
2018-May-17 02:09N 59°03' E 010°02'0 0.0
2018-May-17 01:57N 59°03' E 010°02'0 0.0
2018-May-17 01:27N 59°03' E 010°02'0 0.0
2018-May-17 00:57N 59°03' E 010°02'0 0.0
2018-May-17 00:27N 59°03' E 010°02'0 0.0
2018-May-16 23:57N 59°03' E 010°02'0 0.0
2018-May-16 23:21N 59°03' E 010°02'0 0.0
2018-May-16 22:57N 59°03' E 010°02'0 0.0
2018-May-16 22:09N 59°03' E 010°02'0 0.0
2018-May-16 21:15N 59°03' E 010°02'0 0.0
2018-May-16 20:42N 59°03' E 010°02'0 0.0
2018-May-16 20:21N 59°03' E 010°02'0 0.0
2018-May-16 19:51N 59°03' E 010°02'0 0.0
2018-May-16 19:18N 59°03' E 010°02'0 0.0
2018-May-16 18:45N 59°03' E 010°02'0 0.0
2018-May-16 18:15N 59°03' E 010°02'0 0.0
2018-May-16 17:39N 59°03' E 010°02'0 0.0
2018-May-16 17:27N 59°03' E 010°02'0 0.0
2018-May-16 16:57N 59°03' E 010°02'0 0.0
2018-May-16 16:21N 59°03' E 010°02'0 0.0
2018-May-16 16:00N 59°03' E 010°02'0 0.0
2018-May-16 15:30N 59°03' E 010°02'0 0.0
2018-May-16 14:54N 59°03' E 010°02'0 0.0
2018-May-16 14:18N 59°03' E 010°02'0 0.0
2018-May-16 13:42N 59°03' E 010°02'0 0.0
2018-May-16 13:30N 59°03' E 010°02'0 0.0
2018-May-16 13:00N 59°03' E 010°02'0 0.0
2018-May-16 12:30N 59°03' E 010°02'0 0.0
2018-May-16 12:00N 59°03' E 010°02'0 0.0
2018-May-16 11:27N 59°03' E 010°02'0 0.0
2018-May-16 10:57N 59°03' E 010°02'0 0.0
2018-May-16 10:27N 59°03' E 010°02'0 0.0
2018-May-16 09:57N 59°03' E 010°02'0 0.0
2018-May-16 09:30N 59°03' E 010°02'0 0.0
2018-May-16 08:45N 59°03' E 010°02'0 0.0
2018-May-16 08:21N 59°03' E 010°02'0 0.0
2018-May-16 07:57N 59°03' E 010°02'0 0.0
2018-May-16 07:21N 59°03' E 010°02'0 0.0
2018-May-16 06:57N 59°03' E 010°02'0 0.0
2018-May-16 06:25N 59°03' E 010°02'0 0.1
2018-May-16 06:00N 59°03' E 010°02'1 2.9
2018-May-16 05:30N 59°02' E 010°03'2 4.1
2018-May-16 05:00N 58°60' E 010°04'4 7.8
2018-May-16 04:30N 58°56' E 010°04'3 6.2
2018-May-16 04:00N 58°53' E 010°02'3 5.2
2018-May-16 03:30N 58°50' E 010°00'3 5.8
2018-May-16 03:00N 58°48' E 009°59'3 6.7
2018-May-16 02:30N 58°44' E 009°57'4 7.1
2018-May-16 02:00N 58°41' E 009°55'5 7.1
2018-May-16 01:15N 58°36' E 009°52'2 7.0
2018-May-16 01:00N 58°34' E 009°50'3 6.9
2018-May-16 00:30N 58°31' E 009°48'4 7.1
2018-May-15 23:58N 58°28' E 009°46'3 7.1
2018-May-15 23:30N 58°24' E 009°44'4 7.1
2018-May-15 23:00N 58°21' E 009°41'3 6.9
2018-May-15 22:30N 58°18' E 009°38'16 6.2
2018-May-15 19:51N 58°04' E 009°22'21 6.4
2018-May-15 16:40N 57°48' E 008°59'133 5.8
2018-May-14 17:35N 55°49' E 007°08'1 5.8
2018-May-14 17:30N 55°49' E 007°07'3 5.6
2018-May-14 17:00N 55°46' E 007°09'3 6.8
2018-May-14 16:31N 55°44' E 007°13'4 6.9
2018-May-14 16:00N 55°41' E 007°18'4 7.4
2018-May-14 15:30N 55°38' E 007°22'4 7.1
2018-May-14 14:59N 55°35' E 007°24'4 7.5
2018-May-14 14:30N 55°31' E 007°26'4 7.6
2018-May-14 14:01N 55°28' E 007°30'4 7.3
2018-May-14 13:29N 55°25' E 007°33'2 4.3
2018-May-14 13:00N 55°23' E 007°35'1 2.4
2018-May-14 12:30N 55°22' E 007°36'2 2.8
2018-May-14 11:51N 55°21' E 007°38'2 4.7
2018-May-14 11:30N 55°19' E 007°40'3 5.1
2018-May-14 10:59N 55°17' E 007°42'2 5.1
2018-May-14 10:30N 55°15' E 007°45'4 7.1
2018-May-14 10:00N 55°12' E 007°48'4 7.2
2018-May-14 09:31N 55°09' E 007°51'4 7.0
2018-May-14 09:00N 55°05' E 007°53'3 6.7
2018-May-14 08:31N 55°02' E 007°55'3 6.5
2018-May-14 08:00N 54°59' E 007°56'3 6.6
2018-May-14 07:30N 54°56' E 007°57'3 6.6
2018-May-14 07:01N 54°53' E 007°57'4 7.3
2018-May-14 06:31N 54°49' E 007°55'4 8.1
2018-May-14 06:00N 54°45' E 007°54'4 7.9
2018-May-14 05:30N 54°41' E 007°53'4 7.8
2018-May-14 04:59N 54°37' E 007°53'5 8.5
2018-May-14 04:27N 54°32' E 007°52'4 8.8
2018-May-14 03:58N 54°28' E 007°50'14 8.2
2018-May-14 02:15N 54°15' E 007°44'5 9.4
2018-May-14 01:42N 54°10' E 007°45'2 9.5
2018-May-14 01:28N 54°08' E 007°48'510.1
2018-May-14 01:00N 54°05' E 007°55'2710.7
2018-May-13 22:32N 53°57' E 008°38'0 8.6
2018-May-13 22:30N 53°57' E 008°38'4 7.9
2018-May-13 21:59N 53°54' E 008°42'4 7.6
2018-May-13 21:30N 53°51' E 008°46'4 7.0
2018-May-13 21:00N 53°50' E 008°52'4 7.3
2018-May-13 20:30N 53°51' E 008°58'4 8.1
2018-May-13 20:00N 53°52' E 009°04'4 8.3
2018-May-13 19:30N 53°53' E 009°12'510.9
2018-May-13 19:00N 53°51' E 009°20'611.9
2018-May-13 18:30N 53°45' E 009°24'611.7
2018-May-13 17:58N 53°40' E 009°31'511.6
2018-May-13 17:30N 53°36' E 009°36'611.8
2018-May-13 17:00N 53°34' E 009°45'511.0
2018-May-13 16:30N 53°33' E 009°54'3 5.7
2018-May-13 16:00N 53°32' E 009°59'0 0.9
2018-May-13 15:30N 53°33' E 009°58'0 0.3
2018-May-13 14:57N 53°33' E 009°58'0 0.0
2018-May-13 14:30N 53°33' E 009°58'0 0.0
2018-May-13 14:00N 53°33' E 009°58'0 0.0
2018-May-13 13:30N 53°33' E 009°58'0 0.0
2018-May-13 13:00N 53°33' E 009°58'0 0.0
2018-May-13 12:30N 53°33' E 009°58'0 0.0
2018-May-13 12:00N 53°33' E 009°58'0 0.0
2018-May-13 11:30N 53°33' E 009°58'0 0.0
2018-May-13 11:00N 53°33' E 009°58'0 0.0
2018-May-13 10:30N 53°33' E 009°58'0 0.0
2018-May-13 10:00N 53°33' E 009°58'0 0.0
2018-May-13 09:30N 53°33' E 009°58'0 0.0
2018-May-13 09:00N 53°33' E 009°58'0 0.0
2018-May-13 08:30N 53°33' E 009°58'0 0.0
2018-May-13 08:00N 53°33' E 009°58'0 0.0
2018-May-13 07:30N 53°33' E 009°58'0 0.0
2018-May-13 07:00N 53°33' E 009°58'0 0.0
2018-May-13 06:30N 53°33' E 009°58'0 0.0
2018-May-13 06:00N 53°33' E 009°58'0 0.0
2018-May-13 05:30N 53°33' E 009°58'0 0.0
2018-May-13 05:00N 53°33' E 009°58'0 0.0
2018-May-13 04:30N 53°33' E 009°58'0 0.0
2018-May-13 04:00N 53°33' E 009°58'0 0.0
2018-May-13 03:30N 53°33' E 009°58'0 0.0
2018-May-13 03:00N 53°33' E 009°58'  

Dump ship's entire track history